createdAt,value
2023-06-20T00:00:41.386Z,18.76
2023-06-20T00:03:30.315Z,18.73
2023-06-20T00:05:58.096Z,18.76
2023-06-20T00:08:25.906Z,18.80
2023-06-20T00:10:53.699Z,18.77
2023-06-20T00:13:21.731Z,18.74
2023-06-20T00:15:49.679Z,18.74
2023-06-20T00:18:18.926Z,18.72
2023-06-20T00:20:47.499Z,18.66
2023-06-20T00:23:15.318Z,18.61
2023-06-20T00:25:43.188Z,18.62
2023-06-20T00:28:13.735Z,18.58
2023-06-20T00:30:41.516Z,18.52
2023-06-20T00:33:10.172Z,18.47
2023-06-20T00:35:38.486Z,18.46
2023-06-20T00:38:07.943Z,18.45
2023-06-20T00:40:35.736Z,18.43
2023-06-20T00:43:05.175Z,18.46
2023-06-20T00:45:34.556Z,18.47
2023-06-20T00:48:07.802Z,18.46
2023-06-20T00:50:36.351Z,18.46
2023-06-20T00:53:06.961Z,18.45
2023-06-20T00:55:37.022Z,18.42
2023-06-20T00:58:05.968Z,18.40
2023-06-20T01:00:35.594Z,18.34
2023-06-20T01:03:07.914Z,18.27
2023-06-20T01:05:38.225Z,18.23
2023-06-20T01:08:22.505Z,18.20
2023-06-20T01:10:58.858Z,18.15
2023-06-20T01:13:41.504Z,18.11
2023-06-20T01:16:28.010Z,18.06
2023-06-20T01:19:07.564Z,18.00
2023-06-20T01:21:43.203Z,17.98
2023-06-20T01:24:18.859Z,17.98
2023-06-20T01:26:59.032Z,17.98
2023-06-20T01:29:34.320Z,17.95
2023-06-20T01:32:07.576Z,17.87
2023-06-20T01:34:40.696Z,17.84
2023-06-20T01:37:14.693Z,17.80
2023-06-20T01:39:48.510Z,17.78
2023-06-20T01:42:21.127Z,17.72
2023-06-20T01:44:51.283Z,17.60
2023-06-20T01:47:20.596Z,17.62
2023-06-20T01:49:52.794Z,17.66
2023-06-20T01:52:22.123Z,17.67
2023-06-20T01:54:52.006Z,17.70
2023-06-20T01:57:21.645Z,17.69
2023-06-20T01:59:51.245Z,17.67
2023-06-20T02:02:20.967Z,17.64
2023-06-20T02:04:50.432Z,17.62
2023-06-20T02:07:19.036Z,17.59
2023-06-20T02:09:47.592Z,17.57
2023-06-20T02:12:17.485Z,17.55
2023-06-20T02:14:49.282Z,17.52
2023-06-20T02:17:19.499Z,17.50
2023-06-20T02:19:47.699Z,17.48
2023-06-20T02:22:18.428Z,17.48
2023-06-20T02:24:49.123Z,17.46
2023-06-20T02:27:20.558Z,17.43
2023-06-20T02:29:48.968Z,17.41
2023-06-20T02:32:18.527Z,17.42
2023-06-20T02:34:48.987Z,17.40
2023-06-20T02:37:16.912Z,17.36
2023-06-20T02:39:44.617Z,17.33
2023-06-20T02:42:12.476Z,17.28
2023-06-20T02:44:40.301Z,17.26
2023-06-20T02:47:40.567Z,17.26
2023-06-20T02:50:24.957Z,17.26
2023-06-20T02:53:02.038Z,17.28
2023-06-20T02:55:56.445Z,17.32
2023-06-20T02:58:27.455Z,17.30
2023-06-20T03:00:58.494Z,17.34
2023-06-20T03:03:34.338Z,17.38
2023-06-20T03:06:02.931Z,17.39
2023-06-20T03:08:31.591Z,17.42
2023-06-20T03:11:00.142Z,17.42
2023-06-20T03:13:28.797Z,17.41
2023-06-20T03:15:56.664Z,17.41
2023-06-20T03:18:26.017Z,17.42
2023-06-20T03:20:54.229Z,17.46
2023-06-20T03:23:22.101Z,17.53
2023-06-20T03:25:49.804Z,17.57
2023-06-20T03:28:17.586Z,17.52
2023-06-20T03:30:45.580Z,17.54
2023-06-20T03:33:13.475Z,17.41
2023-06-20T03:35:41.346Z,17.36
2023-06-20T03:38:09.146Z,17.48
2023-06-20T03:40:37.075Z,17.52
2023-06-20T03:43:04.834Z,17.53
2023-06-20T03:45:33.085Z,17.54
2023-06-20T03:48:00.986Z,17.63
2023-06-20T03:50:28.811Z,17.68
2023-06-20T03:52:56.509Z,17.74
2023-06-20T03:55:24.789Z,17.73
2023-06-20T03:57:52.952Z,17.53
2023-06-20T04:00:21.374Z,17.45
2023-06-20T04:02:49.579Z,17.46
2023-06-20T04:05:20.045Z,17.45
2023-06-20T04:07:48.249Z,17.56
2023-06-20T04:10:16.163Z,17.59
2023-06-20T04:12:44.271Z,17.68
2023-06-20T04:15:12.139Z,17.90
2023-06-20T04:17:42.356Z,17.99
2023-06-20T04:20:14.488Z,17.95
2023-06-20T04:22:46.255Z,18.07
2023-06-20T04:25:15.690Z,18.21
2023-06-20T04:27:43.737Z,18.26
2023-06-20T04:30:11.970Z,18.29
2023-06-20T04:32:40.577Z,18.42
2023-06-20T04:35:11.906Z,18.50
2023-06-20T04:37:42.834Z,18.62
2023-06-20T04:40:12.602Z,18.76
2023-06-20T04:42:40.449Z,18.81
2023-06-20T04:45:10.287Z,18.91
2023-06-20T04:47:38.521Z,19.06
2023-06-20T04:50:10.442Z,19.28
2023-06-20T04:52:38.399Z,19.38
2023-06-20T04:55:06.717Z,19.54
2023-06-20T04:57:35.187Z,19.74
2023-06-20T05:00:15.945Z,19.83
2023-06-20T05:02:43.858Z,19.95
2023-06-20T05:05:12.288Z,20.05
2023-06-20T05:07:43.567Z,20.19
2023-06-20T05:10:11.422Z,20.31
2023-06-20T05:12:39.196Z,20.43
2023-06-20T05:15:09.176Z,20.65
2023-06-20T05:17:37.064Z,20.96
2023-06-20T05:20:07.573Z,21.11
2023-06-20T05:22:36.062Z,21.34
2023-06-20T05:25:04.104Z,21.55
2023-06-20T05:27:33.616Z,21.78
2023-06-20T05:30:01.619Z,22.10
2023-06-20T05:32:31.447Z,22.28
2023-06-20T05:35:00.421Z,22.54
2023-06-20T05:37:32.137Z,22.66
2023-06-20T05:40:01.728Z,22.83
2023-06-20T05:42:33.031Z,22.99
2023-06-20T05:45:01.025Z,23.20
2023-06-20T05:47:29.808Z,23.38
2023-06-20T05:49:58.627Z,23.47
2023-06-20T05:52:26.552Z,23.59
2023-06-20T05:54:54.978Z,23.76
2023-06-20T05:57:22.981Z,23.90
2023-06-20T05:59:51.267Z,24.04
2023-06-20T06:02:20.662Z,24.23
2023-06-20T06:04:49.315Z,24.40
2023-06-20T06:07:17.240Z,24.56
2023-06-20T06:09:47.798Z,24.76
2023-06-20T06:12:16.068Z,25.02
2023-06-20T06:14:43.856Z,25.31
2023-06-20T06:17:11.654Z,25.67
2023-06-20T06:19:39.543Z,25.97
2023-06-20T06:22:07.576Z,26.17
2023-06-20T06:24:35.549Z,26.36
2023-06-20T06:27:05.302Z,26.70
2023-06-20T06:29:33.088Z,27.14
2023-06-20T06:32:01.464Z,27.37
2023-06-20T06:34:29.701Z,27.52
2023-06-20T06:36:57.748Z,28.22
2023-06-20T06:39:26.498Z,28.98
2023-06-20T06:41:54.884Z,29.34
2023-06-20T06:44:22.742Z,29.44
2023-06-20T06:46:50.679Z,29.50
2023-06-20T06:49:18.569Z,29.88
2023-06-20T06:51:48.277Z,29.92
2023-06-20T06:54:16.994Z,29.91
2023-06-20T06:56:44.721Z,30.27
2023-06-20T06:59:12.461Z,30.77
2023-06-20T07:01:40.549Z,31.21
2023-06-20T07:04:08.441Z,31.40
2023-06-20T07:06:36.224Z,31.27
2023-06-20T07:09:04.019Z,31.29
2023-06-20T07:11:31.953Z,31.78
2023-06-20T07:13:59.882Z,31.97
2023-06-20T07:16:27.763Z,31.93
2023-06-20T07:18:55.660Z,31.75
2023-06-20T07:21:23.440Z,31.64
2023-06-20T07:23:51.154Z,31.67
2023-06-20T07:26:18.925Z,31.89
2023-06-20T07:28:46.854Z,32.17
2023-06-20T07:33:09.373Z,32.46
2023-06-20T07:35:35.862Z,32.70
2023-06-20T07:38:02.261Z,32.96
2023-06-20T07:40:28.707Z,33.10
2023-06-20T07:42:56.461Z,33.20
2023-06-20T07:45:22.980Z,33.36
2023-06-20T07:47:49.504Z,33.50
2023-06-20T07:50:16.089Z,33.60
2023-06-20T07:52:43.329Z,33.71
2023-06-20T07:55:20.367Z,33.83
2023-06-20T07:57:54.385Z,33.99
2023-06-20T08:00:21.815Z,34.15
2023-06-20T08:02:48.175Z,34.35
2023-06-20T08:05:14.597Z,34.53
2023-06-20T08:07:41.911Z,34.68
2023-06-20T08:10:10.817Z,34.75
2023-06-20T08:12:38.119Z,34.67
2023-06-20T08:15:06.262Z,34.72
2023-06-20T08:17:50.571Z,34.52
2023-06-20T08:20:18.358Z,34.19
2023-06-20T08:22:46.082Z,33.87
2023-06-20T08:25:13.887Z,33.91
2023-06-20T08:27:41.665Z,34.35
2023-06-20T08:40:32.103Z,35.35
2023-06-20T08:42:59.982Z,35.30
2023-06-20T08:45:30.773Z,35.25
2023-06-20T08:48:00.592Z,35.20
2023-06-20T08:50:31.609Z,34.78
2023-06-20T08:53:05.667Z,34.53
2023-06-20T08:55:36.031Z,35.00
2023-06-20T08:58:07.889Z,35.41
2023-06-20T09:00:35.725Z,35.22
2023-06-20T09:03:04.258Z,34.61
2023-06-20T09:05:33.639Z,33.81
2023-06-20T09:08:01.681Z,33.23
2023-06-20T09:10:29.827Z,32.76
2023-06-20T09:12:58.192Z,32.30
2023-06-20T09:15:28.063Z,31.90
2023-06-20T09:17:59.498Z,31.52
2023-06-20T09:20:29.689Z,31.21
2023-06-20T09:22:59.121Z,31.00
2023-06-20T09:25:30.161Z,30.89
2023-06-20T09:27:58.829Z,30.94
2023-06-20T09:30:31.924Z,31.25
2023-06-20T09:33:07.148Z,31.87
2023-06-20T09:35:35.143Z,32.24
2023-06-20T09:38:05.598Z,32.62
2023-06-20T09:40:45.816Z,33.24
2023-06-20T09:43:14.056Z,33.93
2023-06-20T09:45:41.875Z,34.64
2023-06-20T09:48:10.692Z,35.55
2023-06-20T09:50:40.012Z,36.47
2023-06-20T09:53:23.436Z,37.32
2023-06-20T09:55:52.893Z,38.14
2023-06-20T09:58:22.862Z,38.74
2023-06-20T10:00:51.262Z,39.13
2023-06-20T10:03:19.937Z,39.52
2023-06-20T10:05:48.368Z,39.28
2023-06-20T10:08:17.600Z,38.28
2023-06-20T10:10:45.342Z,37.75
2023-06-20T10:13:14.156Z,37.76
2023-06-20T10:15:41.912Z,37.44
2023-06-20T10:18:37.574Z,37.02
2023-06-20T10:21:07.477Z,37.33
2023-06-20T10:23:38.349Z,37.48
2023-06-20T10:26:09.493Z,37.61
2023-06-20T10:28:40.067Z,37.26
2023-06-20T10:31:08.281Z,36.72
2023-06-20T10:33:38.292Z,36.37
2023-06-20T10:36:11.208Z,36.02
2023-06-20T10:39:00.566Z,36.33
2023-06-20T10:41:29.899Z,36.73
2023-06-20T10:44:00.256Z,37.07
2023-06-20T10:46:43.282Z,37.52
2023-06-20T10:49:11.816Z,38.33
2023-06-20T10:51:47.210Z,38.64
2023-06-20T10:54:17.117Z,38.10
2023-06-20T10:56:45.402Z,37.22
2023-06-20T10:59:15.190Z,35.63
2023-06-20T11:01:44.782Z,34.59
2023-06-20T11:04:14.556Z,33.95
2023-06-20T11:06:43.492Z,33.41
2023-06-20T11:09:22.323Z,33.16
2023-06-20T11:11:52.267Z,33.40
2023-06-20T11:14:22.015Z,33.57
2023-06-20T11:16:52.243Z,34.22
2023-06-20T11:21:55.566Z,34.22
2023-06-20T11:24:23.502Z,34.12
2023-06-20T11:26:52.020Z,33.81
2023-06-20T11:29:19.835Z,33.63
2023-06-20T11:31:47.625Z,33.46
2023-06-20T11:34:18.246Z,33.11
2023-06-20T11:36:46.088Z,33.01
2023-06-20T11:39:15.413Z,32.96
2023-06-20T11:41:43.238Z,32.87
2023-06-20T11:44:26.204Z,32.79
2023-06-20T11:46:58.121Z,32.75
2023-06-20T11:49:33.138Z,32.72
2023-06-20T11:52:01.225Z,32.76
2023-06-20T11:54:29.183Z,32.86
2023-06-20T11:56:57.311Z,33.08
2023-06-20T11:59:25.889Z,33.55
2023-06-20T12:01:54.195Z,34.73
2023-06-20T12:04:23.325Z,35.99
2023-06-20T12:07:04.610Z,37.06
2023-06-20T12:09:41.975Z,37.83
2023-06-20T12:12:10.815Z,38.02
2023-06-20T12:14:39.064Z,38.23
2023-06-20T12:17:06.966Z,37.89
2023-06-20T12:19:36.216Z,36.66
2023-06-20T12:22:04.366Z,36.11
2023-06-20T12:24:32.208Z,35.54
2023-06-20T12:27:00.067Z,34.82
2023-06-20T12:29:27.925Z,34.22
2023-06-20T12:31:55.675Z,34.09
2023-06-20T12:34:23.433Z,34.44
2023-06-20T12:36:52.768Z,35.14
2023-06-20T12:39:20.638Z,35.28
2023-06-20T12:41:48.679Z,35.40
2023-06-20T12:44:16.489Z,36.15
2023-06-20T12:46:44.303Z,37.10
2023-06-20T12:49:12.066Z,37.89
2023-06-20T12:51:40.030Z,38.06
2023-06-20T12:54:07.784Z,37.85
2023-06-20T12:56:36.032Z,37.89
2023-06-20T12:59:05.485Z,38.23
2023-06-20T13:01:33.469Z,38.20
2023-06-20T13:04:01.369Z,38.31
2023-06-20T13:06:29.144Z,38.79
2023-06-20T13:08:56.886Z,39.09
2023-06-20T13:11:24.639Z,39.22
2023-06-20T13:13:52.396Z,39.35
2023-06-20T13:16:20.312Z,39.06
2023-06-20T13:18:48.312Z,38.42
2023-06-20T13:21:16.071Z,37.43
2023-06-20T13:23:53.073Z,36.70
2023-06-20T13:26:31.949Z,36.10
2023-06-20T13:29:00.145Z,35.70
2023-06-20T13:31:28.040Z,35.98
2023-06-20T13:33:55.868Z,36.41
2023-06-20T13:36:23.721Z,36.45
2023-06-20T13:38:51.656Z,36.40
2023-06-20T13:41:19.682Z,36.54
2023-06-20T13:43:47.486Z,37.18
2023-06-20T13:46:15.273Z,37.74
2023-06-20T13:48:43.080Z,37.89
2023-06-20T13:51:10.875Z,38.27
2023-06-20T13:53:38.614Z,38.69
2023-06-20T13:56:06.610Z,39.08
2023-06-20T13:58:34.575Z,39.38
2023-06-20T14:01:02.285Z,39.60
2023-06-20T14:03:30.103Z,39.69
2023-06-20T14:05:59.200Z,39.74
2023-06-20T14:08:27.511Z,39.64
2023-06-20T14:10:55.410Z,39.52
2023-06-20T14:13:24.213Z,39.34
2023-06-20T14:15:57.435Z,39.35
2023-06-20T14:18:27.329Z,39.34
2023-06-20T14:20:55.803Z,39.41
2023-06-20T14:23:26.206Z,39.44
2023-06-20T14:26:08.834Z,39.54
2023-06-20T14:28:39.755Z,39.94
2023-06-20T14:31:13.530Z,39.63
2023-06-20T14:33:42.281Z,39.16
2023-06-20T14:36:31.899Z,38.68
2023-06-20T14:38:59.641Z,38.18
2023-06-20T14:41:29.092Z,38.40
2023-06-20T14:43:57.080Z,38.84
2023-06-20T14:46:24.966Z,38.58
2023-06-20T14:48:53.290Z,37.86
2023-06-20T14:51:25.124Z,37.45
2023-06-20T14:53:54.388Z,37.77
2023-06-20T14:56:22.259Z,38.34
2023-06-20T14:58:50.117Z,38.83
2023-06-20T15:01:17.956Z,38.91
2023-06-20T15:03:45.807Z,39.01
2023-06-20T15:06:13.854Z,39.21
2023-06-20T15:08:41.620Z,39.40
2023-06-20T15:11:09.481Z,39.54
2023-06-20T15:13:37.239Z,39.63
2023-06-20T15:16:05.220Z,39.66
2023-06-20T15:18:33.469Z,39.50
2023-06-20T15:21:01.212Z,39.39
2023-06-20T15:23:29.093Z,39.31
2023-06-20T15:25:56.985Z,39.06
2023-06-20T15:28:24.976Z,38.55
2023-06-20T15:30:52.785Z,37.64
2023-06-20T15:33:20.546Z,36.66
2023-06-20T15:35:48.337Z,36.25
2023-06-20T15:38:16.065Z,35.87
2023-06-20T15:40:44.104Z,35.59
2023-06-20T15:43:12.210Z,35.44
2023-06-20T15:45:40.889Z,35.41
2023-06-20T15:48:10.453Z,35.41
2023-06-20T15:50:38.257Z,35.40
2023-06-20T15:53:06.978Z,35.35
2023-06-20T15:55:35.273Z,35.19
2023-06-20T15:58:03.903Z,35.08
2023-06-20T16:00:31.822Z,34.93
2023-06-20T16:03:00.591Z,34.69
2023-06-20T16:05:29.539Z,34.57
2023-06-20T16:07:58.718Z,34.44
2023-06-20T16:10:26.920Z,34.33
2023-06-20T16:12:55.301Z,34.17
2023-06-20T16:15:23.354Z,33.91
2023-06-20T16:17:51.278Z,33.66
2023-06-20T16:20:19.187Z,33.48
2023-06-20T16:22:46.952Z,33.29
2023-06-20T16:25:14.808Z,33.15
2023-06-20T16:27:42.676Z,33.03
2023-06-20T16:30:11.277Z,32.87
2023-06-20T16:32:41.444Z,32.73
2023-06-20T16:35:09.688Z,32.59
2023-06-20T16:44:41.988Z,32.38
2023-06-20T16:47:09.563Z,32.37
2023-06-20T16:49:36.729Z,32.30
2023-06-20T16:52:03.541Z,32.24
2023-06-20T16:54:30.291Z,32.17
2023-06-20T16:56:56.688Z,32.08
2023-06-20T16:59:23.151Z,31.96
2023-06-20T17:01:49.601Z,31.85
2023-06-20T17:04:15.977Z,31.76
2023-06-20T17:06:42.430Z,31.64
2023-06-20T17:09:09.366Z,31.52
2023-06-20T17:11:36.006Z,31.42
2023-06-20T17:14:05.406Z,31.33
2023-06-20T17:16:31.737Z,31.22
2023-06-20T17:18:59.997Z,31.10
2023-06-20T17:21:26.535Z,30.98
2023-06-20T17:24:04.036Z,30.85
2023-06-20T17:26:31.098Z,30.72
2023-06-20T17:28:59.937Z,30.61
2023-06-20T17:31:28.593Z,30.51
2023-06-20T17:33:55.937Z,30.39
2023-06-20T17:36:23.387Z,30.26
2023-06-20T17:38:53.430Z,30.12
2023-06-20T17:41:20.449Z,29.98
2023-06-20T17:43:50.271Z,29.85
2023-06-20T17:46:18.668Z,29.72
2023-06-20T17:48:45.069Z,29.62
2023-06-20T17:51:11.733Z,29.52
2023-06-20T17:53:39.920Z,29.37
2023-06-20T17:56:06.808Z,29.21
2023-06-20T17:58:34.288Z,29.02
2023-06-20T18:01:02.738Z,28.80
2023-06-20T18:03:29.368Z,28.62
2023-06-20T18:05:56.653Z,28.46
2023-06-20T18:08:24.312Z,28.31
2023-06-20T18:10:55.790Z,28.18
2023-06-20T18:13:22.235Z,28.07
2023-06-20T18:15:50.213Z,27.91
2023-06-20T18:18:16.540Z,27.76
2023-06-20T18:20:43.566Z,27.62
2023-06-20T18:23:13.896Z,27.50
2023-06-20T18:25:43.751Z,27.40
2023-06-20T18:28:10.842Z,27.28
2023-06-20T18:30:39.124Z,27.16
2023-06-20T18:33:08.273Z,27.05
2023-06-20T18:35:39.969Z,26.92
2023-06-20T18:38:07.946Z,26.79
2023-06-20T18:40:34.342Z,26.71
2023-06-20T18:43:04.271Z,26.62
2023-06-20T18:45:34.240Z,26.53
2023-06-20T18:48:01.632Z,26.42
2023-06-20T18:50:29.284Z,26.36
2023-06-20T18:52:58.028Z,26.30
2023-06-20T18:55:24.485Z,26.20
2023-06-20T18:57:51.195Z,26.09
2023-06-20T19:00:17.873Z,26.00
2023-06-20T19:02:45.372Z,25.88
2023-06-20T19:05:12.266Z,25.75
2023-06-20T19:07:38.672Z,25.63
2023-06-20T19:10:11.376Z,25.53
2023-06-20T19:12:39.030Z,25.42
2023-06-20T19:15:06.296Z,25.35
2023-06-20T19:17:32.849Z,25.24
2023-06-20T19:20:57.894Z,25.08
2023-06-20T19:23:26.187Z,24.99
2023-06-20T19:25:55.757Z,24.88
2023-06-20T19:28:23.660Z,24.83
2023-06-20T19:30:54.565Z,24.77
2023-06-20T19:33:22.515Z,24.72
2023-06-20T19:35:50.374Z,24.64
2023-06-20T19:38:22.549Z,24.58
2023-06-20T19:40:51.289Z,24.50
2023-06-20T19:43:19.491Z,24.42
2023-06-20T19:45:47.675Z,24.41
2023-06-20T19:48:17.220Z,24.37
2023-06-20T19:50:45.220Z,24.33
2023-06-20T19:53:13.087Z,24.30
2023-06-20T19:55:41.232Z,24.20
2023-06-20T19:58:09.184Z,24.08
2023-06-20T20:00:37.040Z,23.99
2023-06-20T20:03:08.314Z,23.95
2023-06-20T20:05:38.399Z,23.90
2023-06-20T20:08:07.194Z,23.86
2023-06-20T20:10:35.238Z,23.79
2023-06-20T20:13:03.383Z,23.73
2023-06-20T20:16:48.395Z,23.58
2023-06-20T20:19:18.334Z,23.49
2023-06-20T20:21:47.228Z,23.40
2023-06-20T20:24:15.931Z,23.35
2023-06-20T20:26:43.895Z,23.31
2023-06-20T20:29:11.961Z,23.28
2023-06-20T20:31:39.893Z,23.26
2023-06-20T20:34:08.111Z,23.19
2023-06-20T20:36:36.120Z,23.11
2023-06-20T20:39:04.905Z,23.07
2023-06-20T20:41:33.106Z,22.99
2023-06-20T20:44:00.954Z,22.95
2023-06-20T20:46:29.071Z,22.91
2023-06-20T20:48:57.780Z,22.83
2023-06-20T20:51:25.820Z,22.76
2023-06-20T20:53:53.755Z,22.73
2023-06-20T20:56:21.821Z,22.68
2023-06-20T20:58:49.731Z,22.60
2023-06-20T21:01:17.671Z,22.52
2023-06-20T21:03:46.465Z,22.45
2023-06-20T21:06:14.994Z,22.44
2023-06-20T21:08:43.106Z,22.39
2023-06-20T21:11:10.976Z,22.35
2023-06-20T21:13:39.144Z,22.24
2023-06-20T21:16:09.424Z,22.14
2023-06-20T21:18:37.320Z,22.09
2023-06-20T21:21:05.247Z,22.05
2023-06-20T21:23:33.291Z,22.02
2023-06-20T21:26:01.231Z,21.99
2023-06-20T21:28:29.125Z,21.92
2023-06-20T21:30:57.082Z,21.92
2023-06-20T21:33:24.899Z,21.92
2023-06-20T21:35:52.665Z,21.94
2023-06-20T21:38:20.781Z,21.87
2023-06-20T21:40:50.492Z,21.83
2023-06-20T21:43:18.475Z,21.80
2023-06-20T21:45:46.332Z,21.77
2023-06-20T21:48:14.431Z,21.74
2023-06-20T21:50:42.318Z,21.70
2023-06-20T21:53:12.517Z,21.69
2023-06-20T21:55:41.262Z,21.65
2023-06-20T21:58:09.663Z,21.61
2023-06-20T22:00:37.669Z,21.56
2023-06-20T22:03:05.676Z,21.50
2023-06-20T22:05:33.774Z,21.47
2023-06-20T22:08:02.498Z,21.42
2023-06-20T22:10:59.184Z,21.36
2023-06-20T22:13:45.562Z,21.29
2023-06-20T22:16:13.299Z,21.26
2023-06-20T22:18:41.210Z,21.23
2023-06-20T22:22:14.842Z,21.15
2023-06-20T22:24:42.557Z,21.12
2023-06-20T22:27:12.035Z,21.10
2023-06-20T22:29:40.486Z,21.07
2023-06-20T22:32:09.086Z,21.02
2023-06-20T22:34:37.047Z,21.05
2023-06-20T22:37:05.024Z,21.05
2023-06-20T22:39:33.272Z,21.03
2023-06-20T22:42:04.105Z,21.00
2023-06-20T22:44:32.024Z,20.99
2023-06-20T22:47:01.969Z,21.00
2023-06-20T22:49:29.826Z,20.98
2023-06-20T22:51:57.940Z,20.98
2023-06-20T22:54:26.170Z,20.97
2023-06-20T22:56:54.089Z,20.97
2023-06-20T22:59:22.092Z,20.95
2023-06-20T23:01:50.056Z,20.97
2023-06-20T23:04:17.878Z,20.98
2023-06-20T23:06:45.890Z,20.96
2023-06-20T23:09:13.680Z,20.90
2023-06-20T23:11:41.451Z,20.90
2023-06-20T23:14:09.329Z,20.85
2023-06-20T23:16:37.499Z,20.81
2023-06-20T23:19:05.241Z,20.77
2023-06-20T23:21:33.026Z,20.76
2023-06-20T23:24:05.019Z,20.77
2023-06-20T23:26:36.957Z,20.76
2023-06-20T23:29:05.968Z,20.71
2023-06-20T23:31:33.977Z,20.69
2023-06-20T23:34:01.993Z,20.66
2023-06-20T23:36:29.784Z,20.61
2023-06-20T23:38:57.981Z,20.55
2023-06-20T23:41:26.037Z,20.53
2023-06-20T23:43:54.737Z,20.53
2023-06-20T23:46:22.528Z,20.56
2023-06-20T23:48:50.473Z,20.63
2023-06-20T23:51:18.590Z,20.68
2023-06-20T23:53:46.858Z,20.70
2023-06-20T23:56:14.685Z,20.77
2023-06-20T23:58:42.493Z,20.80
